sensor_id;sensor_type;location;lat;lon;timestamp;P1;durP1;ratioP1;P2;durP2;ratioP2
12385;SDS011;6257;57.634;18.310;2022-08-11T00:02:13;4.33;;;2.60;;
12385;SDS011;6257;57.634;18.310;2022-08-11T00:04:41;3.47;;;2.70;;
12385;SDS011;6257;57.634;18.310;2022-08-11T00:07:10;4.03;;;2.70;;
12385;SDS011;6257;57.634;18.310;2022-08-11T00:09:38;3.20;;;2.90;;
12385;SDS011;6257;57.634;18.310;2022-08-11T00:12:11;3.57;;;2.83;;
12385;SDS011;6257;57.634;18.310;2022-08-11T00:14:40;3.47;;;2.90;;
12385;SDS011;6257;57.634;18.310;2022-08-11T00:17:09;5.00;;;3.30;;
12385;SDS011;6257;57.634;18.310;2022-08-11T00:19:39;3.20;;;2.73;;
12385;SDS011;6257;57.634;18.310;2022-08-11T00:22:11;4.53;;;3.00;;
12385;SDS011;6257;57.634;18.310;2022-08-11T00:24:45;3.23;;;2.93;;
12385;SDS011;6257;57.634;18.310;2022-08-11T00:27:13;4.33;;;2.87;;
12385;SDS011;6257;57.634;18.310;2022-08-11T00:29:41;6.40;;;3.10;;
12385;SDS011;6257;57.634;18.310;2022-08-11T00:32:18;4.53;;;2.97;;
12385;SDS011;6257;57.634;18.310;2022-08-11T00:34:46;4.73;;;3.40;;
12385;SDS011;6257;57.634;18.310;2022-08-11T00:37:17;5.10;;;2.80;;
12385;SDS011;6257;57.634;18.310;2022-08-11T00:39:45;8.30;;;3.33;;
12385;SDS011;6257;57.634;18.310;2022-08-11T00:42:39;3.47;;;3.03;;
12385;SDS011;6257;57.634;18.310;2022-08-11T00:45:10;3.30;;;2.93;;
12385;SDS011;6257;57.634;18.310;2022-08-11T00:47:51;5.33;;;3.20;;
12385;SDS011;6257;57.634;18.310;2022-08-11T00:50:28;4.87;;;3.47;;
12385;SDS011;6257;57.634;18.310;2022-08-11T00:53:11;4.87;;;3.03;;
12385;SDS011;6257;57.634;18.310;2022-08-11T01:01:58;4.53;;;3.17;;
12385;SDS011;6257;57.634;18.310;2022-08-11T01:10:51;4.57;;;3.23;;
12385;SDS011;6257;57.634;18.310;2022-08-11T01:22:45;3.83;;;3.30;;
12385;SDS011;6257;57.634;18.310;2022-08-11T01:25:56;3.90;;;3.50;;
12385;SDS011;6257;57.634;18.310;2022-08-11T01:38:05;3.77;;;3.40;;
12385;SDS011;6257;57.634;18.310;2022-08-11T01:40:54;3.93;;;3.30;;
12385;SDS011;6257;57.634;18.310;2022-08-11T01:44:03;3.93;;;3.27;;
12385;SDS011;6257;57.634;18.310;2022-08-11T01:47:01;5.37;;;3.40;;
12385;SDS011;6257;57.634;18.310;2022-08-11T01:50:02;3.73;;;3.30;;
12385;SDS011;6257;57.634;18.310;2022-08-11T01:52:42;4.30;;;3.40;;
12385;SDS011;6257;57.634;18.310;2022-08-11T01:55:24;4.50;;;3.60;;
12385;SDS011;6257;57.634;18.310;2022-08-11T01:57:58;5.33;;;3.47;;
12385;SDS011;6257;57.634;18.310;2022-08-11T02:00:35;5.63;;;3.40;;
12385;SDS011;6257;57.634;18.310;2022-08-11T02:03:23;5.33;;;3.30;;
12385;SDS011;6257;57.634;18.310;2022-08-11T02:06:01;6.00;;;3.60;;
12385;SDS011;6257;57.634;18.310;2022-08-11T02:08:58;3.60;;;3.30;;
12385;SDS011;6257;57.634;18.310;2022-08-11T02:11:33;4.53;;;3.80;;
12385;SDS011;6257;57.634;18.310;2022-08-11T02:14:06;5.13;;;3.30;;
12385;SDS011;6257;57.634;18.310;2022-08-11T02:16:42;3.53;;;3.23;;
12385;SDS011;6257;57.634;18.310;2022-08-11T02:19:32;4.80;;;3.40;;
12385;SDS011;6257;57.634;18.310;2022-08-11T02:22:30;3.57;;;3.27;;
12385;SDS011;6257;57.634;18.310;2022-08-11T02:25:23;5.27;;;3.60;;
12385;SDS011;6257;57.634;18.310;2022-08-11T02:27:59;6.20;;;3.40;;
12385;SDS011;6257;57.634;18.310;2022-08-11T02:30:34;4.23;;;3.80;;
12385;SDS011;6257;57.634;18.310;2022-08-11T02:33:09;4.27;;;3.70;;
12385;SDS011;6257;57.634;18.310;2022-08-11T02:35:56;4.17;;;3.40;;
12385;SDS011;6257;57.634;18.310;2022-08-11T02:38:30;3.90;;;3.60;;
12385;SDS011;6257;57.634;18.310;2022-08-11T02:41:08;4.30;;;3.87;;
12385;SDS011;6257;57.634;18.310;2022-08-11T02:43:58;3.93;;;3.50;;
12385;SDS011;6257;57.634;18.310;2022-08-11T02:46:36;4.90;;;3.63;;
12385;SDS011;6257;57.634;18.310;2022-08-11T02:49:13;5.10;;;3.80;;
12385;SDS011;6257;57.634;18.310;2022-08-11T02:52:14;3.97;;;3.57;;
12385;SDS011;6257;57.634;18.310;2022-08-11T02:54:52;4.87;;;4.20;;
12385;SDS011;6257;57.634;18.310;2022-08-11T02:57:32;4.60;;;3.70;;
12385;SDS011;6257;57.634;18.310;2022-08-11T03:00:06;5.13;;;4.00;;
12385;SDS011;6257;57.634;18.310;2022-08-11T03:05:51;5.00;;;4.10;;
12385;SDS011;6257;57.634;18.310;2022-08-11T03:08:31;4.87;;;4.20;;
12385;SDS011;6257;57.634;18.310;2022-08-11T03:11:18;5.33;;;4.10;;
12385;SDS011;6257;57.634;18.310;2022-08-11T03:14:12;4.67;;;4.27;;
12385;SDS011;6257;57.634;18.310;2022-08-11T03:17:01;5.60;;;4.00;;
12385;SDS011;6257;57.634;18.310;2022-08-11T03:19:47;4.27;;;3.90;;
12385;SDS011;6257;57.634;18.310;2022-08-11T03:22:21;5.33;;;3.90;;
12385;SDS011;6257;57.634;18.310;2022-08-11T03:24:57;4.60;;;3.90;;
12385;SDS011;6257;57.634;18.310;2022-08-11T03:27:33;4.97;;;4.00;;
12385;SDS011;6257;57.634;18.310;2022-08-11T03:30:09;4.27;;;3.87;;
12385;SDS011;6257;57.634;18.310;2022-08-11T03:32:44;4.40;;;3.90;;
12385;SDS011;6257;57.634;18.310;2022-08-11T03:35:44;5.53;;;3.90;;
12385;SDS011;6257;57.634;18.310;2022-08-11T03:38:20;4.23;;;3.40;;
12385;SDS011;6257;57.634;18.310;2022-08-11T03:40:58;5.57;;;4.10;;
12385;SDS011;6257;57.634;18.310;2022-08-11T03:43:54;6.20;;;4.20;;
12385;SDS011;6257;57.634;18.310;2022-08-11T03:46:38;4.30;;;3.90;;
12385;SDS011;6257;57.634;18.310;2022-08-11T03:49:28;4.17;;;3.77;;
12385;SDS011;6257;57.634;18.310;2022-08-11T03:52:06;4.13;;;3.73;;
12385;SDS011;6257;57.634;18.310;2022-08-11T03:54:41;6.27;;;3.83;;
12385;SDS011;6257;57.634;18.310;2022-08-11T03:57:37;5.43;;;4.07;;
12385;SDS011;6257;57.634;18.310;2022-08-11T04:00:25;4.27;;;3.87;;
12385;SDS011;6257;57.634;18.310;2022-08-11T04:06:27;4.47;;;3.60;;
12385;SDS011;6257;57.634;18.310;2022-08-11T04:12:27;4.90;;;3.80;;
12385;SDS011;6257;57.634;18.310;2022-08-11T04:24:37;4.10;;;3.47;;
12385;SDS011;6257;57.634;18.310;2022-08-11T04:27:52;5.47;;;3.17;;
12385;SDS011;6257;57.634;18.310;2022-08-11T04:30:39;4.10;;;3.20;;
12385;SDS011;6257;57.634;18.310;2022-08-11T04:33:32;3.33;;;2.63;;
12385;SDS011;6257;57.634;18.310;2022-08-11T04:36:10;3.20;;;2.90;;
12385;SDS011;6257;57.634;18.310;2022-08-11T04:39:13;4.40;;;3.30;;
12385;SDS011;6257;57.634;18.310;2022-08-11T04:42:06;4.40;;;2.90;;
12385;SDS011;6257;57.634;18.310;2022-08-11T04:45:27;3.97;;;2.67;;
12385;SDS011;6257;57.634;18.310;2022-08-11T04:51:43;2.70;;;2.40;;
12385;SDS011;6257;57.634;18.310;2022-08-11T04:54:48;3.07;;;2.43;;
12385;SDS011;6257;57.634;18.310;2022-08-11T04:57:45;2.87;;;2.43;;
12385;SDS011;6257;57.634;18.310;2022-08-11T05:00:37;2.73;;;2.53;;
12385;SDS011;6257;57.634;18.310;2022-08-11T05:03:34;3.40;;;2.53;;
12385;SDS011;6257;57.634;18.310;2022-08-11T05:06:28;4.47;;;2.60;;
12385;SDS011;6257;57.634;18.310;2022-08-11T05:09:34;3.57;;;2.80;;
12385;SDS011;6257;57.634;18.310;2022-08-11T05:12:27;4.53;;;2.40;;
12385;SDS011;6257;57.634;18.310;2022-08-11T05:14:58;3.40;;;2.40;;
12385;SDS011;6257;57.634;18.310;2022-08-11T05:17:54;3.80;;;2.43;;
12385;SDS011;6257;57.634;18.310;2022-08-11T05:20:45;3.30;;;2.80;;
12385;SDS011;6257;57.634;18.310;2022-08-11T05:23:33;4.43;;;2.43;;
12385;SDS011;6257;57.634;18.310;2022-08-11T05:26:24;3.33;;;2.20;;
12385;SDS011;6257;57.634;18.310;2022-08-11T05:29:26;4.30;;;2.57;;
12385;SDS011;6257;57.634;18.310;2022-08-11T05:32:21;3.07;;;2.20;;
12385;SDS011;6257;57.634;18.310;2022-08-11T05:35:06;4.33;;;2.50;;
12385;SDS011;6257;57.634;18.310;2022-08-11T05:37:37;2.80;;;2.10;;
12385;SDS011;6257;57.634;18.310;2022-08-11T05:40:22;3.47;;;2.40;;
12385;SDS011;6257;57.634;18.310;2022-08-11T05:43:10;2.70;;;2.10;;
12385;SDS011;6257;57.634;18.310;2022-08-11T05:45:56;5.03;;;2.30;;
12385;SDS011;6257;57.634;18.310;2022-08-11T05:48:43;4.70;;;2.10;;
12385;SDS011;6257;57.634;18.310;2022-08-11T05:51:32;4.33;;;2.30;;
12385;SDS011;6257;57.634;18.310;2022-08-11T05:54:17;3.40;;;2.60;;
12385;SDS011;6257;57.634;18.310;2022-08-11T05:57:03;3.27;;;2.37;;
12385;SDS011;6257;57.634;18.310;2022-08-11T05:59:32;2.50;;;2.30;;
12385;SDS011;6257;57.634;18.310;2022-08-11T06:02:00;2.87;;;2.00;;
12385;SDS011;6257;57.634;18.310;2022-08-11T06:04:30;2.50;;;2.30;;
12385;SDS011;6257;57.634;18.310;2022-08-11T06:06:59;4.10;;;2.33;;
12385;SDS011;6257;57.634;18.310;2022-08-11T06:09:30;6.07;;;2.53;;
12385;SDS011;6257;57.634;18.310;2022-08-11T06:12:02;4.20;;;2.37;;
12385;SDS011;6257;57.634;18.310;2022-08-11T06:14:35;4.27;;;2.33;;
12385;SDS011;6257;57.634;18.310;2022-08-11T06:17:08;1.90;;;1.70;;
12385;SDS011;6257;57.634;18.310;2022-08-11T06:19:37;2.77;;;1.90;;
12385;SDS011;6257;57.634;18.310;2022-08-11T06:22:07;3.17;;;2.03;;
12385;SDS011;6257;57.634;18.310;2022-08-11T06:24:38;3.60;;;1.80;;
12385;SDS011;6257;57.634;18.310;2022-08-11T06:27:09;3.07;;;1.53;;
12385;SDS011;6257;57.634;18.310;2022-08-11T06:29:46;1.70;;;1.30;;
12385;SDS011;6257;57.634;18.310;2022-08-11T06:32:15;3.27;;;1.53;;
12385;SDS011;6257;57.634;18.310;2022-08-11T06:34:49;1.30;;;1.20;;
12385;SDS011;6257;57.634;18.310;2022-08-11T06:37:45;2.60;;;1.30;;
12385;SDS011;6257;57.634;18.310;2022-08-11T06:40:32;1.43;;;1.20;;
12385;SDS011;6257;57.634;18.310;2022-08-11T06:43:05;1.67;;;1.40;;
12385;SDS011;6257;57.634;18.310;2022-08-11T06:45:47;3.27;;;1.50;;
12385;SDS011;6257;57.634;18.310;2022-08-11T06:48:19;3.63;;;1.37;;
12385;SDS011;6257;57.634;18.310;2022-08-11T06:50:49;1.40;;;1.30;;
12385;SDS011;6257;57.634;18.310;2022-08-11T06:53:34;1.40;;;1.30;;
12385;SDS011;6257;57.634;18.310;2022-08-11T06:56:07;5.23;;;1.33;;
12385;SDS011;6257;57.634;18.310;2022-08-11T06:58:54;2.60;;;1.20;;
12385;SDS011;6257;57.634;18.310;2022-08-11T07:01:45;1.70;;;1.20;;
12385;SDS011;6257;57.634;18.310;2022-08-11T07:04:19;1.73;;;1.10;;
12385;SDS011;6257;57.634;18.310;2022-08-11T07:10:32;2.83;;;1.10;;
12385;SDS011;6257;57.634;18.310;2022-08-11T07:13:30;1.40;;;1.10;;
12385;SDS011;6257;57.634;18.310;2022-08-11T07:16:20;2.53;;;1.00;;
12385;SDS011;6257;57.634;18.310;2022-08-11T07:18:53;1.77;;;1.30;;
12385;SDS011;6257;57.634;18.310;2022-08-11T07:21:48;2.80;;;1.07;;
12385;SDS011;6257;57.634;18.310;2022-08-11T07:24:35;2.00;;;1.00;;
12385;SDS011;6257;57.634;18.310;2022-08-11T07:27:21;2.13;;;1.10;;
12385;SDS011;6257;57.634;18.310;2022-08-11T07:30:10;2.57;;;1.00;;
12385;SDS011;6257;57.634;18.310;2022-08-11T07:32:40;1.67;;;1.10;;
12385;SDS011;6257;57.634;18.310;2022-08-11T07:35:15;1.87;;;0.93;;
12385;SDS011;6257;57.634;18.310;2022-08-11T07:37:47;2.00;;;0.77;;
12385;SDS011;6257;57.634;18.310;2022-08-11T07:40:21;1.40;;;1.00;;
12385;SDS011;6257;57.634;18.310;2022-08-11T07:42:49;3.00;;;0.90;;
12385;SDS011;6257;57.634;18.310;2022-08-11T07:45:18;1.20;;;0.80;;
12385;SDS011;6257;57.634;18.310;2022-08-11T07:48:04;1.80;;;1.10;;
12385;SDS011;6257;57.634;18.310;2022-08-11T07:50:50;1.50;;;1.00;;
12385;SDS011;6257;57.634;18.310;2022-08-11T07:53:35;1.73;;;1.13;;
12385;SDS011;6257;57.634;18.310;2022-08-11T07:56:04;2.20;;;1.00;;
12385;SDS011;6257;57.634;18.310;2022-08-11T07:58:33;1.33;;;1.10;;
12385;SDS011;6257;57.634;18.310;2022-08-11T08:01:20;1.10;;;1.00;;
12385;SDS011;6257;57.634;18.310;2022-08-11T08:04:07;2.53;;;1.20;;
12385;SDS011;6257;57.634;18.310;2022-08-11T08:06:55;2.30;;;1.10;;
12385;SDS011;6257;57.634;18.310;2022-08-11T08:09:41;2.50;;;1.20;;
12385;SDS011;6257;57.634;18.310;2022-08-11T08:12:27;2.73;;;1.10;;
12385;SDS011;6257;57.634;18.310;2022-08-11T08:15:13;2.00;;;1.23;;
12385;SDS011;6257;57.634;18.310;2022-08-11T08:18:00;2.60;;;1.10;;
12385;SDS011;6257;57.634;18.310;2022-08-11T08:20:30;2.43;;;1.30;;
12385;SDS011;6257;57.634;18.310;2022-08-11T08:23:01;2.73;;;1.50;;
12385;SDS011;6257;57.634;18.310;2022-08-11T08:25:30;2.83;;;1.17;;
12385;SDS011;6257;57.634;18.310;2022-08-11T08:27:59;1.70;;;1.20;;
12385;SDS011;6257;57.634;18.310;2022-08-11T08:30:28;3.00;;;1.20;;
12385;SDS011;6257;57.634;18.310;2022-08-11T08:33:16;2.33;;;1.20;;
12385;SDS011;6257;57.634;18.310;2022-08-11T08:35:46;1.23;;;1.10;;
12385;SDS011;6257;57.634;18.310;2022-08-11T08:38:16;3.17;;;1.50;;
12385;SDS011;6257;57.634;18.310;2022-08-11T08:40:44;2.33;;;1.30;;
12385;SDS011;6257;57.634;18.310;2022-08-11T08:43:14;2.87;;;1.47;;
12385;SDS011;6257;57.634;18.310;2022-08-11T08:45:43;1.70;;;1.30;;
12385;SDS011;6257;57.634;18.310;2022-08-11T08:48:12;3.23;;;1.50;;
12385;SDS011;6257;57.634;18.310;2022-08-11T08:50:42;2.60;;;1.30;;
12385;SDS011;6257;57.634;18.310;2022-08-11T08:53:33;1.83;;;1.37;;
12385;SDS011;6257;57.634;18.310;2022-08-11T08:56:02;1.10;;;1.00;;
12385;SDS011;6257;57.634;18.310;2022-08-11T08:58:32;2.13;;;1.33;;
12385;SDS011;6257;57.634;18.310;2022-08-11T09:01:01;2.63;;;1.27;;
12385;SDS011;6257;57.634;18.310;2022-08-11T09:03:28;1.80;;;1.50;;
12385;SDS011;6257;57.634;18.310;2022-08-11T09:05:57;1.83;;;1.20;;
12385;SDS011;6257;57.634;18.310;2022-08-11T09:08:24;2.27;;;1.40;;
12385;SDS011;6257;57.634;18.310;2022-08-11T09:10:55;3.00;;;1.67;;
12385;SDS011;6257;57.634;18.310;2022-08-11T09:13:40;2.70;;;1.50;;
12385;SDS011;6257;57.634;18.310;2022-08-11T09:16:10;2.50;;;1.33;;
12385;SDS011;6257;57.634;18.310;2022-08-11T09:18:39;1.47;;;1.30;;
12385;SDS011;6257;57.634;18.310;2022-08-11T09:21:08;2.60;;;1.30;;
12385;SDS011;6257;57.634;18.310;2022-08-11T09:23:38;1.87;;;1.27;;
12385;SDS011;6257;57.634;18.310;2022-08-11T09:26:25;2.33;;;1.33;;
12385;SDS011;6257;57.634;18.310;2022-08-11T09:29:11;2.70;;;1.50;;
12385;SDS011;6257;57.634;18.310;2022-08-11T09:31:38;1.93;;;1.30;;
12385;SDS011;6257;57.634;18.310;2022-08-11T09:34:06;3.43;;;1.50;;
12385;SDS011;6257;57.634;18.310;2022-08-11T09:36:36;1.70;;;1.60;;
12385;SDS011;6257;57.634;18.310;2022-08-11T09:39:22;5.43;;;1.50;;
12385;SDS011;6257;57.634;18.310;2022-08-11T09:42:09;2.03;;;1.53;;
12385;SDS011;6257;57.634;18.310;2022-08-11T09:44:37;2.53;;;1.33;;
12385;SDS011;6257;57.634;18.310;2022-08-11T09:47:15;3.47;;;1.57;;
12385;SDS011;6257;57.634;18.310;2022-08-11T09:49:45;1.93;;;1.23;;
12385;SDS011;6257;57.634;18.310;2022-08-11T09:52:15;2.50;;;1.60;;
12385;SDS011;6257;57.634;18.310;2022-08-11T09:54:45;1.30;;;1.20;;
12385;SDS011;6257;57.634;18.310;2022-08-11T09:57:18;2.13;;;1.50;;
12385;SDS011;6257;57.634;18.310;2022-08-11T10:00:05;4.37;;;1.77;;
12385;SDS011;6257;57.634;18.310;2022-08-11T10:02:33;3.23;;;1.43;;
12385;SDS011;6257;57.634;18.310;2022-08-11T10:05:06;3.23;;;1.73;;
12385;SDS011;6257;57.634;18.310;2022-08-11T10:07:50;3.53;;;1.80;;
12385;SDS011;6257;57.634;18.310;2022-08-11T10:10:20;2.23;;;1.73;;
12385;SDS011;6257;57.634;18.310;2022-08-11T10:12:51;1.80;;;1.50;;
12385;SDS011;6257;57.634;18.310;2022-08-11T10:15:25;5.47;;;1.73;;
12385;SDS011;6257;57.634;18.310;2022-08-11T10:18:03;1.60;;;1.50;;
12385;SDS011;6257;57.634;18.310;2022-08-11T10:20:50;3.30;;;1.60;;
12385;SDS011;6257;57.634;18.310;2022-08-11T10:23:20;2.00;;;1.70;;
12385;SDS011;6257;57.634;18.310;2022-08-11T10:26:06;2.47;;;1.73;;
12385;SDS011;6257;57.634;18.310;2022-08-11T10:28:52;2.37;;;1.67;;
12385;SDS011;6257;57.634;18.310;2022-08-11T10:31:20;3.17;;;1.50;;
12385;SDS011;6257;57.634;18.310;2022-08-11T10:34:04;2.73;;;1.50;;
12385;SDS011;6257;57.634;18.310;2022-08-11T10:36:34;2.17;;;1.67;;
12385;SDS011;6257;57.634;18.310;2022-08-11T10:39:07;2.30;;;1.60;;
12385;SDS011;6257;57.634;18.310;2022-08-11T10:41:35;3.03;;;1.50;;
12385;SDS011;6257;57.634;18.310;2022-08-11T10:44:23;3.43;;;1.50;;
12385;SDS011;6257;57.634;18.310;2022-08-11T10:46:51;2.67;;;1.53;;
12385;SDS011;6257;57.634;18.310;2022-08-11T10:49:36;2.20;;;1.60;;
12385;SDS011;6257;57.634;18.310;2022-08-11T10:52:03;2.43;;;1.60;;
12385;SDS011;6257;57.634;18.310;2022-08-11T10:54:48;1.87;;;1.47;;
12385;SDS011;6257;57.634;18.310;2022-08-11T10:57:33;3.40;;;1.60;;
12385;SDS011;6257;57.634;18.310;2022-08-11T11:00:19;2.33;;;1.53;;
12385;SDS011;6257;57.634;18.310;2022-08-11T11:02:48;3.63;;;1.50;;
12385;SDS011;6257;57.634;18.310;2022-08-11T11:05:20;2.90;;;1.70;;
12385;SDS011;6257;57.634;18.310;2022-08-11T11:07:51;3.07;;;1.70;;
12385;SDS011;6257;57.634;18.310;2022-08-11T11:10:24;3.00;;;1.40;;
12385;SDS011;6257;57.634;18.310;2022-08-11T11:12:53;2.20;;;1.53;;
12385;SDS011;6257;57.634;18.310;2022-08-11T11:15:43;1.53;;;1.30;;
12385;SDS011;6257;57.634;18.310;2022-08-11T11:18:30;2.43;;;1.27;;
12385;SDS011;6257;57.634;18.310;2022-08-11T11:21:02;3.03;;;1.50;;
12385;SDS011;6257;57.634;18.310;2022-08-11T11:23:32;1.90;;;1.43;;
12385;SDS011;6257;57.634;18.310;2022-08-11T11:26:19;2.97;;;1.40;;
12385;SDS011;6257;57.634;18.310;2022-08-11T11:29:12;4.37;;;1.50;;
12385;SDS011;6257;57.634;18.310;2022-08-11T11:32:19;1.50;;;1.37;;
12385;SDS011;6257;57.634;18.310;2022-08-11T11:35:06;2.23;;;1.40;;
12385;SDS011;6257;57.634;18.310;2022-08-11T11:37:39;4.80;;;1.63;;
12385;SDS011;6257;57.634;18.310;2022-08-11T11:40:09;1.77;;;1.30;;
12385;SDS011;6257;57.634;18.310;2022-08-11T11:42:38;2.37;;;1.33;;
12385;SDS011;6257;57.634;18.310;2022-08-11T11:45:07;3.03;;;1.37;;
12385;SDS011;6257;57.634;18.310;2022-08-11T11:47:37;2.00;;;1.60;;
12385;SDS011;6257;57.634;18.310;2022-08-11T11:50:05;1.90;;;1.40;;
12385;SDS011;6257;57.634;18.310;2022-08-11T11:52:33;2.87;;;1.67;;
12385;SDS011;6257;57.634;18.310;2022-08-11T11:55:02;3.90;;;1.60;;
12385;SDS011;6257;57.634;18.310;2022-08-11T11:57:30;2.30;;;1.50;;
12385;SDS011;6257;57.634;18.310;2022-08-11T12:00:17;4.40;;;1.50;;
12385;SDS011;6257;57.634;18.310;2022-08-11T12:03:04;1.93;;;1.43;;
12385;SDS011;6257;57.634;18.310;2022-08-11T12:05:35;3.63;;;1.40;;
12385;SDS011;6257;57.634;18.310;2022-08-11T12:08:04;2.97;;;1.47;;
12385;SDS011;6257;57.634;18.310;2022-08-11T12:10:45;2.97;;;1.50;;
12385;SDS011;6257;57.634;18.310;2022-08-11T12:13:14;2.13;;;1.30;;
12385;SDS011;6257;57.634;18.310;2022-08-11T12:16:00;2.43;;;1.40;;
12385;SDS011;6257;57.634;18.310;2022-08-11T12:18:33;2.50;;;1.37;;
12385;SDS011;6257;57.634;18.310;2022-08-11T12:21:02;1.93;;;1.37;;
12385;SDS011;6257;57.634;18.310;2022-08-11T12:23:30;2.60;;;1.50;;
12385;SDS011;6257;57.634;18.310;2022-08-11T12:26:16;1.83;;;1.57;;
12385;SDS011;6257;57.634;18.310;2022-08-11T12:29:10;2.83;;;1.50;;
12385;SDS011;6257;57.634;18.310;2022-08-11T12:31:39;1.60;;;1.47;;
12385;SDS011;6257;57.634;18.310;2022-08-11T12:34:10;4.07;;;1.83;;
12385;SDS011;6257;57.634;18.310;2022-08-11T12:36:39;2.83;;;1.30;;
12385;SDS011;6257;57.634;18.310;2022-08-11T12:39:08;2.13;;;1.53;;
12385;SDS011;6257;57.634;18.310;2022-08-11T12:41:37;1.67;;;1.30;;
12385;SDS011;6257;57.634;18.310;2022-08-11T12:44:32;3.10;;;1.40;;
12385;SDS011;6257;57.634;18.310;2022-08-11T12:47:18;2.50;;;1.47;;
12385;SDS011;6257;57.634;18.310;2022-08-11T12:49:47;1.30;;;1.20;;
12385;SDS011;6257;57.634;18.310;2022-08-11T12:52:36;3.33;;;1.20;;
12385;SDS011;6257;57.634;18.310;2022-08-11T12:55:11;1.87;;;1.50;;
12385;SDS011;6257;57.634;18.310;2022-08-11T12:58:01;2.00;;;1.50;;
12385;SDS011;6257;57.634;18.310;2022-08-11T13:00:41;2.70;;;1.40;;
12385;SDS011;6257;57.634;18.310;2022-08-11T13:03:27;1.43;;;1.33;;
12385;SDS011;6257;57.634;18.310;2022-08-11T13:06:13;3.63;;;1.40;;
12385;SDS011;6257;57.634;18.310;2022-08-11T13:08:41;1.67;;;1.40;;
12385;SDS011;6257;57.634;18.310;2022-08-11T13:11:10;2.07;;;1.50;;
12385;SDS011;6257;57.634;18.310;2022-08-11T13:13:54;2.07;;;1.40;;
12385;SDS011;6257;57.634;18.310;2022-08-11T13:16:22;2.23;;;1.33;;
12385;SDS011;6257;57.634;18.310;2022-08-11T13:18:51;3.57;;;1.37;;
12385;SDS011;6257;57.634;18.310;2022-08-11T13:21:21;2.33;;;1.40;;
12385;SDS011;6257;57.634;18.310;2022-08-11T13:23:49;1.63;;;1.23;;
12385;SDS011;6257;57.634;18.310;2022-08-11T13:26:19;2.10;;;1.50;;
12385;SDS011;6257;57.634;18.310;2022-08-11T13:28:48;2.70;;;1.40;;
12385;SDS011;6257;57.634;18.310;2022-08-11T13:31:16;2.57;;;1.53;;
12385;SDS011;6257;57.634;18.310;2022-08-11T13:33:44;1.80;;;1.30;;
12385;SDS011;6257;57.634;18.310;2022-08-11T13:36:13;2.07;;;1.50;;
12385;SDS011;6257;57.634;18.310;2022-08-11T13:38:46;3.20;;;1.60;;
12385;SDS011;6257;57.634;18.310;2022-08-11T13:41:14;2.37;;;1.30;;
12385;SDS011;6257;57.634;18.310;2022-08-11T13:44:01;1.77;;;1.30;;
12385;SDS011;6257;57.634;18.310;2022-08-11T13:46:29;2.97;;;1.77;;
12385;SDS011;6257;57.634;18.310;2022-08-11T13:48:57;4.33;;;1.80;;
12385;SDS011;6257;57.634;18.310;2022-08-11T13:51:25;2.73;;;1.50;;
12385;SDS011;6257;57.634;18.310;2022-08-11T13:53:58;2.63;;;1.70;;
12385;SDS011;6257;57.634;18.310;2022-08-11T13:56:27;2.53;;;1.60;;
12385;SDS011;6257;57.634;18.310;2022-08-11T13:58:55;2.77;;;1.63;;
12385;SDS011;6257;57.634;18.310;2022-08-11T14:01:24;2.37;;;1.50;;
12385;SDS011;6257;57.634;18.310;2022-08-11T14:03:54;2.17;;;1.53;;
12385;SDS011;6257;57.634;18.310;2022-08-11T14:06:27;4.47;;;1.63;;
12385;SDS011;6257;57.634;18.310;2022-08-11T14:08:54;2.13;;;1.53;;
12385;SDS011;6257;57.634;18.310;2022-08-11T14:11:24;2.70;;;1.60;;
12385;SDS011;6257;57.634;18.310;2022-08-11T14:14:12;2.30;;;1.40;;
12385;SDS011;6257;57.634;18.310;2022-08-11T14:16:44;5.40;;;1.57;;
12385;SDS011;6257;57.634;18.310;2022-08-11T14:19:13;4.80;;;1.63;;
12385;SDS011;6257;57.634;18.310;2022-08-11T14:21:42;3.00;;;1.40;;
12385;SDS011;6257;57.634;18.310;2022-08-11T14:24:28;3.07;;;1.40;;
12385;SDS011;6257;57.634;18.310;2022-08-11T14:26:59;1.77;;;1.47;;
12385;SDS011;6257;57.634;18.310;2022-08-11T14:29:27;2.47;;;1.30;;
12385;SDS011;6257;57.634;18.310;2022-08-11T14:31:57;2.90;;;1.63;;
12385;SDS011;6257;57.634;18.310;2022-08-11T14:34:27;2.73;;;1.63;;
12385;SDS011;6257;57.634;18.310;2022-08-11T14:36:59;3.07;;;1.40;;
12385;SDS011;6257;57.634;18.310;2022-08-11T14:39:28;2.07;;;1.33;;
12385;SDS011;6257;57.634;18.310;2022-08-11T14:42:01;1.90;;;1.40;;
12385;SDS011;6257;57.634;18.310;2022-08-11T14:44:48;4.83;;;1.47;;
12385;SDS011;6257;57.634;18.310;2022-08-11T14:47:35;4.60;;;2.30;;
12385;SDS011;6257;57.634;18.310;2022-08-11T14:50:03;4.33;;;1.60;;
12385;SDS011;6257;57.634;18.310;2022-08-11T14:52:32;1.40;;;1.20;;
12385;SDS011;6257;57.634;18.310;2022-08-11T14:55:00;3.03;;;1.60;;
12385;SDS011;6257;57.634;18.310;2022-08-11T14:57:47;1.60;;;1.43;;
12385;SDS011;6257;57.634;18.310;2022-08-11T15:00:17;3.00;;;1.53;;
12385;SDS011;6257;57.634;18.310;2022-08-11T15:02:45;2.80;;;1.70;;
12385;SDS011;6257;57.634;18.310;2022-08-11T15:05:34;2.93;;;1.57;;
12385;SDS011;6257;57.634;18.310;2022-08-11T15:08:02;2.80;;;1.50;;
12385;SDS011;6257;57.634;18.310;2022-08-11T15:10:30;3.00;;;1.30;;
12385;SDS011;6257;57.634;18.310;2022-08-11T15:12:59;1.93;;;1.40;;
12385;SDS011;6257;57.634;18.310;2022-08-11T15:15:27;2.30;;;1.60;;
12385;SDS011;6257;57.634;18.310;2022-08-11T15:18:13;1.53;;;1.37;;
12385;SDS011;6257;57.634;18.310;2022-08-11T15:20:42;5.67;;;1.60;;
12385;SDS011;6257;57.634;18.310;2022-08-11T15:23:27;2.90;;;1.57;;
12385;SDS011;6257;57.634;18.310;2022-08-11T15:26:13;3.83;;;1.47;;
12385;SDS011;6257;57.634;18.310;2022-08-11T15:28:45;3.07;;;1.60;;
12385;SDS011;6257;57.634;18.310;2022-08-11T15:31:31;3.37;;;1.47;;
12385;SDS011;6257;57.634;18.310;2022-08-11T15:34:17;2.07;;;1.30;;
12385;SDS011;6257;57.634;18.310;2022-08-11T15:37:06;3.70;;;1.57;;
12385;SDS011;6257;57.634;18.310;2022-08-11T15:39:56;3.37;;;1.87;;
12385;SDS011;6257;57.634;18.310;2022-08-11T15:42:59;1.87;;;1.63;;
12385;SDS011;6257;57.634;18.310;2022-08-11T15:45:49;2.53;;;1.40;;
12385;SDS011;6257;57.634;18.310;2022-08-11T15:48:27;4.60;;;1.60;;
12385;SDS011;6257;57.634;18.310;2022-08-11T15:51:02;4.53;;;1.37;;
12385;SDS011;6257;57.634;18.310;2022-08-11T15:53:37;2.77;;;1.43;;
12385;SDS011;6257;57.634;18.310;2022-08-11T15:56:08;4.10;;;1.80;;
12385;SDS011;6257;57.634;18.310;2022-08-11T15:58:38;3.17;;;1.57;;
12385;SDS011;6257;57.634;18.310;2022-08-11T16:01:27;1.80;;;1.50;;
12385;SDS011;6257;57.634;18.310;2022-08-11T16:04:15;3.17;;;1.70;;
12385;SDS011;6257;57.634;18.310;2022-08-11T16:06:46;3.73;;;1.80;;
12385;SDS011;6257;57.634;18.310;2022-08-11T16:09:19;2.87;;;1.30;;
12385;SDS011;6257;57.634;18.310;2022-08-11T16:11:52;3.50;;;1.53;;
12385;SDS011;6257;57.634;18.310;2022-08-11T16:14:22;5.77;;;1.70;;
12385;SDS011;6257;57.634;18.310;2022-08-11T16:17:10;5.00;;;1.70;;
12385;SDS011;6257;57.634;18.310;2022-08-11T16:19:41;4.50;;;1.53;;
12385;SDS011;6257;57.634;18.310;2022-08-11T16:22:11;2.47;;;1.70;;
12385;SDS011;6257;57.634;18.310;2022-08-11T16:24:45;1.77;;;1.43;;
12385;SDS011;6257;57.634;18.310;2022-08-11T16:27:16;2.40;;;1.80;;
12385;SDS011;6257;57.634;18.310;2022-08-11T16:29:44;5.20;;;1.50;;
12385;SDS011;6257;57.634;18.310;2022-08-11T16:32:15;3.20;;;1.53;;
12385;SDS011;6257;57.634;18.310;2022-08-11T16:34:49;3.93;;;1.30;;
12385;SDS011;6257;57.634;18.310;2022-08-11T16:37:37;3.20;;;1.40;;
12385;SDS011;6257;57.634;18.310;2022-08-11T16:40:24;3.47;;;1.40;;
12385;SDS011;6257;57.634;18.310;2022-08-11T16:42:51;2.00;;;1.50;;
12385;SDS011;6257;57.634;18.310;2022-08-11T16:45:38;2.37;;;1.53;;
12385;SDS011;6257;57.634;18.310;2022-08-11T16:48:26;3.00;;;1.70;;
12385;SDS011;6257;57.634;18.310;2022-08-11T16:50:56;4.07;;;1.67;;
12385;SDS011;6257;57.634;18.310;2022-08-11T16:53:25;4.10;;;1.50;;